sensor_id;sensor_type;location;lat;lon;timestamp;temperature;humidity
27741;DHT22;15134;48.768;9.184;2023-05-07T00:01:03;16.30;99.90
27741;DHT22;15134;48.768;9.184;2023-05-07T00:03:28;16.20;99.90
27741;DHT22;15134;48.768;9.184;2023-05-07T00:06:00;16.20;99.90
27741;DHT22;15134;48.768;9.184;2023-05-07T00:08:26;16.20;99.90
27741;DHT22;15134;48.768;9.184;2023-05-07T00:10:52;16.20;99.90
27741;DHT22;15134;48.768;9.184;2023-05-07T00:13:17;16.30;99.90
27741;DHT22;15134;48.768;9.184;2023-05-07T00:15:46;16.30;99.90
27741;DHT22;15134;48.768;9.184;2023-05-07T00:18:12;16.30;99.90
27741;DHT22;15134;48.768;9.184;2023-05-07T00:20:38;16.10;99.90
27741;DHT22;15134;48.768;9.184;2023-05-07T00:23:04;16.10;99.90
27741;DHT22;15134;48.768;9.184;2023-05-07T00:25:30;16.10;99.90
27741;DHT22;15134;48.768;9.184;2023-05-07T00:27:56;16.20;99.90
27741;DHT22;15134;48.768;9.184;2023-05-07T00:30:22;16.20;99.90
27741;DHT22;15134;48.768;9.184;2023-05-07T00:32:48;16.20;99.90
27741;DHT22;15134;48.768;9.184;2023-05-07T00:35:16;16.20;99.90
27741;DHT22;15134;48.768;9.184;2023-05-07T00:37:42;16.20;99.90
27741;DHT22;15134;48.768;9.184;2023-05-07T00:40:10;16.20;99.90
27741;DHT22;15134;48.768;9.184;2023-05-07T00:42:36;16.20;99.90
27741;DHT22;15134;48.768;9.184;2023-05-07T00:45:03;16.30;99.90
27741;DHT22;15134;48.768;9.184;2023-05-07T00:47:28;16.10;99.90
27741;DHT22;15134;48.768;9.184;2023-05-07T00:49:54;16.00;99.90
27741;DHT22;15134;48.768;9.184;2023-05-07T00:52:21;16.00;99.90
27741;DHT22;15134;48.768;9.184;2023-05-07T00:54:49;16.00;99.90
27741;DHT22;15134;48.768;9.184;2023-05-07T00:57:15;16.00;99.90
27741;DHT22;15134;48.768;9.184;2023-05-07T00:59:41;16.10;99.90
27741;DHT22;15134;48.768;9.184;2023-05-07T01:02:16;16.10;99.90
27741;DHT22;15134;48.768;9.184;2023-05-07T01:04:42;16.10;99.90
27741;DHT22;15134;48.768;9.184;2023-05-07T01:07:08;16.10;99.90
27741;DHT22;15134;48.768;9.184;2023-05-07T01:09:35;16.00;99.90
27741;DHT22;15134;48.768;9.184;2023-05-07T01:12:04;15.90;99.90
27741;DHT22;15134;48.768;9.184;2023-05-07T01:14:31;15.90;99.90
27741;DHT22;15134;48.768;9.184;2023-05-07T01:16:58;15.90;99.90
27741;DHT22;15134;48.768;9.184;2023-05-07T01:19:24;15.90;99.90
27741;DHT22;15134;48.768;9.184;2023-05-07T01:21:54;15.90;99.90
27741;DHT22;15134;48.768;9.184;2023-05-07T01:24:25;15.90;99.90
27741;DHT22;15134;48.768;9.184;2023-05-07T01:26:51;15.90;99.90
27741;DHT22;15134;48.768;9.184;2023-05-07T01:29:20;15.80;99.90
27741;DHT22;15134;48.768;9.184;2023-05-07T01:31:50;15.80;99.90
27741;DHT22;15134;48.768;9.184;2023-05-07T01:34:21;15.70;99.90
27741;DHT22;15134;48.768;9.184;2023-05-07T01:36:49;15.70;99.90
27741;DHT22;15134;48.768;9.184;2023-05-07T01:39:15;15.70;99.90
27741;DHT22;15134;48.768;9.184;2023-05-07T01:41:43;15.70;99.90
27741;DHT22;15134;48.768;9.184;2023-05-07T01:44:18;15.80;99.90
27741;DHT22;15134;48.768;9.184;2023-05-07T01:46:45;15.80;99.90
27741;DHT22;15134;48.768;9.184;2023-05-07T01:49:11;15.80;99.90
27741;DHT22;15134;48.768;9.184;2023-05-07T01:51:37;15.70;99.90
27741;DHT22;15134;48.768;9.184;2023-05-07T01:54:03;15.70;99.90
27741;DHT22;15134;48.768;9.184;2023-05-07T01:56:34;15.70;99.90
27741;DHT22;15134;48.768;9.184;2023-05-07T01:59:00;15.70;99.90
27741;DHT22;15134;48.768;9.184;2023-05-07T02:01:29;15.70;99.90
27741;DHT22;15134;48.768;9.184;2023-05-07T02:03:55;15.70;99.90
27741;DHT22;15134;48.768;9.184;2023-05-07T02:06:24;15.70;99.90
27741;DHT22;15134;48.768;9.184;2023-05-07T02:08:56;15.60;99.90
27741;DHT22;15134;48.768;9.184;2023-05-07T02:11:25;15.60;99.90
27741;DHT22;15134;48.768;9.184;2023-05-07T02:13:51;15.60;99.90
27741;DHT22;15134;48.768;9.184;2023-05-07T02:16:19;15.70;99.90
27741;DHT22;15134;48.768;9.184;2023-05-07T02:18:48;15.60;99.90
27741;DHT22;15134;48.768;9.184;2023-05-07T02:21:14;15.60;99.90
27741;DHT22;15134;48.768;9.184;2023-05-07T02:23:40;15.60;99.90
27741;DHT22;15134;48.768;9.184;2023-05-07T02:26:06;15.60;99.90
27741;DHT22;15134;48.768;9.184;2023-05-07T02:28:32;15.60;99.90
27741;DHT22;15134;48.768;9.184;2023-05-07T02:31:18;15.60;99.90
27741;DHT22;15134;48.768;9.184;2023-05-07T02:33:44;15.60;99.90
27741;DHT22;15134;48.768;9.184;2023-05-07T02:36:11;15.50;99.90
27741;DHT22;15134;48.768;9.184;2023-05-07T02:39:04;15.40;99.90
27741;DHT22;15134;48.768;9.184;2023-05-07T02:41:31;15.30;99.90
27741;DHT22;15134;48.768;9.184;2023-05-07T02:43:57;15.30;99.90
27741;DHT22;15134;48.768;9.184;2023-05-07T02:46:23;15.30;99.90
27741;DHT22;15134;48.768;9.184;2023-05-07T02:48:57;15.30;99.90
27741;DHT22;15134;48.768;9.184;2023-05-07T02:51:25;15.30;99.90
27741;DHT22;15134;48.768;9.184;2023-05-07T02:53:54;15.40;99.90
27741;DHT22;15134;48.768;9.184;2023-05-07T02:56:21;15.30;99.90
27741;DHT22;15134;48.768;9.184;2023-05-07T02:58:50;15.30;99.90
27741;DHT22;15134;48.768;9.184;2023-05-07T03:01:39;15.30;99.90
27741;DHT22;15134;48.768;9.184;2023-05-07T03:04:06;15.30;99.90
27741;DHT22;15134;48.768;9.184;2023-05-07T03:06:38;15.30;99.90
27741;DHT22;15134;48.768;9.184;2023-05-07T03:09:04;15.20;99.90
27741;DHT22;15134;48.768;9.184;2023-05-07T03:11:33;15.10;99.90
27741;DHT22;15134;48.768;9.184;2023-05-07T03:13:59;15.00;99.90
27741;DHT22;15134;48.768;9.184;2023-05-07T03:16:31;14.90;99.90
27741;DHT22;15134;48.768;9.184;2023-05-07T03:18:57;14.90;99.90
27741;DHT22;15134;48.768;9.184;2023-05-07T03:21:23;14.90;99.90
27741;DHT22;15134;48.768;9.184;2023-05-07T03:23:49;15.00;99.90
27741;DHT22;15134;48.768;9.184;2023-05-07T03:26:15;15.00;99.90
27741;DHT22;15134;48.768;9.184;2023-05-07T03:28:44;15.00;99.90
27741;DHT22;15134;48.768;9.184;2023-05-07T03:31:13;14.90;99.90
27741;DHT22;15134;48.768;9.184;2023-05-07T03:33:54;14.90;99.90
27741;DHT22;15134;48.768;9.184;2023-05-07T03:36:20;15.00;99.90
27741;DHT22;15134;48.768;9.184;2023-05-07T03:38:47;15.00;99.90
27741;DHT22;15134;48.768;9.184;2023-05-07T03:41:16;14.90;99.90
27741;DHT22;15134;48.768;9.184;2023-05-07T03:43:43;14.90;99.90
27741;DHT22;15134;48.768;9.184;2023-05-07T03:46:11;14.90;99.90
27741;DHT22;15134;48.768;9.184;2023-05-07T03:48:36;14.90;99.90
27741;DHT22;15134;48.768;9.184;2023-05-07T03:51:02;14.90;99.90
27741;DHT22;15134;48.768;9.184;2023-05-07T03:53:31;14.80;99.90
27741;DHT22;15134;48.768;9.184;2023-05-07T03:55:57;14.80;99.90
27741;DHT22;15134;48.768;9.184;2023-05-07T03:58:23;14.80;99.90
27741;DHT22;15134;48.768;9.184;2023-05-07T04:00:50;14.90;99.90
27741;DHT22;15134;48.768;9.184;2023-05-07T04:03:22;14.90;99.90
27741;DHT22;15134;48.768;9.184;2023-05-07T04:05:48;14.80;99.90
27741;DHT22;15134;48.768;9.184;2023-05-07T04:08:14;14.80;99.90
27741;DHT22;15134;48.768;9.184;2023-05-07T04:10:45;14.90;99.90
27741;DHT22;15134;48.768;9.184;2023-05-07T04:13:13;14.90;99.90
27741;DHT22;15134;48.768;9.184;2023-05-07T04:15:38;14.90;99.90
27741;DHT22;15134;48.768;9.184;2023-05-07T04:18:08;14.90;99.90
27741;DHT22;15134;48.768;9.184;2023-05-07T04:20:34;14.90;99.90
27741;DHT22;15134;48.768;9.184;2023-05-07T04:23:03;14.90;99.90
27741;DHT22;15134;48.768;9.184;2023-05-07T04:25:33;14.90;99.90
27741;DHT22;15134;48.768;9.184;2023-05-07T04:28:09;14.90;99.90
27741;DHT22;15134;48.768;9.184;2023-05-07T04:30:35;14.90;99.90
27741;DHT22;15134;48.768;9.184;2023-05-07T04:33:03;14.90;99.90
27741;DHT22;15134;48.768;9.184;2023-05-07T04:35:30;15.00;99.90
27741;DHT22;15134;48.768;9.184;2023-05-07T04:38:01;15.10;99.90
27741;DHT22;15134;48.768;9.184;2023-05-07T04:40:28;15.10;99.90
27741;DHT22;15134;48.768;9.184;2023-05-07T04:42:54;15.20;99.90
27741;DHT22;15134;48.768;9.184;2023-05-07T04:45:21;15.20;99.90
27741;DHT22;15134;48.768;9.184;2023-05-07T04:47:49;15.20;99.90
27741;DHT22;15134;48.768;9.184;2023-05-07T04:50:15;15.20;99.90
27741;DHT22;15134;48.768;9.184;2023-05-07T04:52:43;15.20;99.90
27741;DHT22;15134;48.768;9.184;2023-05-07T04:55:09;15.20;99.90
27741;DHT22;15134;48.768;9.184;2023-05-07T04:57:37;15.30;99.90
27741;DHT22;15134;48.768;9.184;2023-05-07T05:00:06;15.30;99.90
27741;DHT22;15134;48.768;9.184;2023-05-07T05:02:35;15.10;99.90
27741;DHT22;15134;48.768;9.184;2023-05-07T05:05:01;15.00;99.90
27741;DHT22;15134;48.768;9.184;2023-05-07T05:07:28;15.00;99.90
27741;DHT22;15134;48.768;9.184;2023-05-07T05:09:54;15.00;99.90
27741;DHT22;15134;48.768;9.184;2023-05-07T05:12:23;15.10;99.90
27741;DHT22;15134;48.768;9.184;2023-05-07T05:14:49;15.10;99.90
27741;DHT22;15134;48.768;9.184;2023-05-07T05:17:21;15.20;99.90
27741;DHT22;15134;48.768;9.184;2023-05-07T05:19:47;15.30;99.90
27741;DHT22;15134;48.768;9.184;2023-05-07T05:22:13;15.40;99.90
27741;DHT22;15134;48.768;9.184;2023-05-07T05:24:38;15.40;99.90
27741;DHT22;15134;48.768;9.184;2023-05-07T05:27:05;15.60;99.90
27741;DHT22;15134;48.768;9.184;2023-05-07T05:29:33;15.90;99.90
27741;DHT22;15134;48.768;9.184;2023-05-07T05:31:59;16.30;99.90
27741;DHT22;15134;48.768;9.184;2023-05-07T05:34:25;16.70;99.90
27741;DHT22;15134;48.768;9.184;2023-05-07T05:36:52;17.00;99.90
27741;DHT22;15134;48.768;9.184;2023-05-07T05:39:18;17.20;99.90
27741;DHT22;15134;48.768;9.184;2023-05-07T05:41:44;17.50;99.90
27741;DHT22;15134;48.768;9.184;2023-05-07T05:44:12;18.00;99.90
27741;DHT22;15134;48.768;9.184;2023-05-07T05:46:38;18.50;99.90
27741;DHT22;15134;48.768;9.184;2023-05-07T05:49:03;19.00;99.90
27741;DHT22;15134;48.768;9.184;2023-05-07T05:51:30;19.40;99.90
27741;DHT22;15134;48.768;9.184;2023-05-07T05:53:56;19.80;99.90
27741;DHT22;15134;48.768;9.184;2023-05-07T05:56:22;20.00;99.90
27741;DHT22;15134;48.768;9.184;2023-05-07T05:58:48;20.10;99.90
27741;DHT22;15134;48.768;9.184;2023-05-07T06:01:17;20.10;99.90
27741;DHT22;15134;48.768;9.184;2023-05-07T06:03:43;20.00;99.90
27741;DHT22;15134;48.768;9.184;2023-05-07T06:06:13;19.90;99.90
27741;DHT22;15134;48.768;9.184;2023-05-07T06:08:41;19.80;99.90
27741;DHT22;15134;48.768;9.184;2023-05-07T06:11:08;19.70;99.90
27741;DHT22;15134;48.768;9.184;2023-05-07T06:13:37;19.80;99.90
27741;DHT22;15134;48.768;9.184;2023-05-07T06:16:04;20.70;99.90
27741;DHT22;15134;48.768;9.184;2023-05-07T06:18:30;22.00;99.90
27741;DHT22;15134;48.768;9.184;2023-05-07T06:20:56;23.10;99.90
27741;DHT22;15134;48.768;9.184;2023-05-07T06:23:28;23.70;99.90
27741;DHT22;15134;48.768;9.184;2023-05-07T06:25:54;24.00;99.90
27741;DHT22;15134;48.768;9.184;2023-05-07T06:28:24;24.10;99.90
27741;DHT22;15134;48.768;9.184;2023-05-07T06:30:51;24.20;99.90
27741;DHT22;15134;48.768;9.184;2023-05-07T06:33:17;23.70;99.90
27741;DHT22;15134;48.768;9.184;2023-05-07T06:35:45;23.10;99.90
27741;DHT22;15134;48.768;9.184;2023-05-07T06:38:11;22.60;99.90
27741;DHT22;15134;48.768;9.184;2023-05-07T06:40:41;22.30;99.90
27741;DHT22;15134;48.768;9.184;2023-05-07T06:43:13;22.50;99.90
27741;DHT22;15134;48.768;9.184;2023-05-07T06:45:48;23.40;99.90
27741;DHT22;15134;48.768;9.184;2023-05-07T06:48:13;24.60;99.90
27741;DHT22;15134;48.768;9.184;2023-05-07T06:50:50;25.00;99.90
27741;DHT22;15134;48.768;9.184;2023-05-07T06:53:15;24.60;99.90
27741;DHT22;15134;48.768;9.184;2023-05-07T06:55:41;25.90;99.90
27741;DHT22;15134;48.768;9.184;2023-05-07T06:58:07;28.00;99.90
27741;DHT22;15134;48.768;9.184;2023-05-07T07:00:33;29.80;99.90
27741;DHT22;15134;48.768;9.184;2023-05-07T07:03:00;31.20;99.90
27741;DHT22;15134;48.768;9.184;2023-05-07T07:05:27;32.50;99.70
27741;DHT22;15134;48.768;9.184;2023-05-07T07:07:54;33.80;96.30
27741;DHT22;15134;48.768;9.184;2023-05-07T07:10:20;35.00;93.00
27741;DHT22;15134;48.768;9.184;2023-05-07T07:12:48;35.00;90.30
27741;DHT22;15134;48.768;9.184;2023-05-07T07:15:15;34.40;89.40
27741;DHT22;15134;48.768;9.184;2023-05-07T07:17:45;35.70;87.40
27741;DHT22;15134;48.768;9.184;2023-05-07T07:20:11;36.80;84.50
27741;DHT22;15134;48.768;9.184;2023-05-07T07:22:36;36.30;83.00
27741;DHT22;15134;48.768;9.184;2023-05-07T07:25:09;37.00;82.00
27741;DHT22;15134;48.768;9.184;2023-05-07T07:27:35;38.50;79.60
27741;DHT22;15134;48.768;9.184;2023-05-07T07:30:01;39.40;77.00
27741;DHT22;15134;48.768;9.184;2023-05-07T07:32:31;40.50;74.20
27741;DHT22;15134;48.768;9.184;2023-05-07T07:34:59;40.90;71.00
27741;DHT22;15134;48.768;9.184;2023-05-07T07:37:26;41.40;68.60
27741;DHT22;15134;48.768;9.184;2023-05-07T07:39:56;40.60;68.30
27741;DHT22;15134;48.768;9.184;2023-05-07T07:42:22;39.30;68.20
27741;DHT22;15134;48.768;9.184;2023-05-07T07:44:50;39.70;68.70
27741;DHT22;15134;48.768;9.184;2023-05-07T07:47:19;40.60;66.90
27741;DHT22;15134;48.768;9.184;2023-05-07T07:49:50;40.30;65.90
27741;DHT22;15134;48.768;9.184;2023-05-07T07:52:15;39.80;66.70
27741;DHT22;15134;48.768;9.184;2023-05-07T07:54:44;39.70;65.80
27741;DHT22;15134;48.768;9.184;2023-05-07T07:57:10;37.70;67.80
27741;DHT22;15134;48.768;9.184;2023-05-07T07:59:36;36.70;69.90
27741;DHT22;15134;48.768;9.184;2023-05-07T08:02:03;36.30;70.10
27741;DHT22;15134;48.768;9.184;2023-05-07T08:04:29;36.20;71.00
27741;DHT22;15134;48.768;9.184;2023-05-07T08:07:03;36.20;71.50
27741;DHT22;15134;48.768;9.184;2023-05-07T08:09:32;35.90;71.30
27741;DHT22;15134;48.768;9.184;2023-05-07T08:11:59;36.20;70.90
27741;DHT22;15134;48.768;9.184;2023-05-07T08:14:27;35.80;71.20
27741;DHT22;15134;48.768;9.184;2023-05-07T08:16:54;35.30;72.00
27741;DHT22;15134;48.768;9.184;2023-05-07T08:19:20;34.80;72.40
27741;DHT22;15134;48.768;9.184;2023-05-07T08:21:47;34.20;74.00
27741;DHT22;15134;48.768;9.184;2023-05-07T08:24:14;33.70;75.50
27741;DHT22;15134;48.768;9.184;2023-05-07T08:26:41;34.20;74.30
27741;DHT22;15134;48.768;9.184;2023-05-07T08:29:10;35.40;73.10
27741;DHT22;15134;48.768;9.184;2023-05-07T08:31:38;37.10;70.80
27741;DHT22;15134;48.768;9.184;2023-05-07T08:34:05;38.50;68.30
27741;DHT22;15134;48.768;9.184;2023-05-07T08:36:32;39.50;66.60
27741;DHT22;15134;48.768;9.184;2023-05-07T08:38:59;38.50;66.20
27741;DHT22;15134;48.768;9.184;2023-05-07T08:41:25;38.00;66.80
27741;DHT22;15134;48.768;9.184;2023-05-07T08:43:51;38.00;67.20
27741;DHT22;15134;48.768;9.184;2023-05-07T08:46:20;37.40;67.30
27741;DHT22;15134;48.768;9.184;2023-05-07T08:48:51;37.60;67.60
27741;DHT22;15134;48.768;9.184;2023-05-07T08:51:20;38.60;65.90
27741;DHT22;15134;48.768;9.184;2023-05-07T08:53:47;39.60;64.60
27741;DHT22;15134;48.768;9.184;2023-05-07T08:56:24;40.50;63.40
27741;DHT22;15134;48.768;9.184;2023-05-07T08:58:52;40.70;62.00
27741;DHT22;15134;48.768;9.184;2023-05-07T09:01:26;41.10;61.60
27741;DHT22;15134;48.768;9.184;2023-05-07T09:03:53;41.50;60.50
27741;DHT22;15134;48.768;9.184;2023-05-07T09:06:20;42.00;60.20
27741;DHT22;15134;48.768;9.184;2023-05-07T09:08:52;42.20;59.60
27741;DHT22;15134;48.768;9.184;2023-05-07T09:11:22;42.30;59.00
27741;DHT22;15134;48.768;9.184;2023-05-07T09:13:58;42.20;58.60
27741;DHT22;15134;48.768;9.184;2023-05-07T09:16:29;41.70;59.10
27741;DHT22;15134;48.768;9.184;2023-05-07T09:18:59;41.80;58.30
27741;DHT22;15134;48.768;9.184;2023-05-07T09:21:26;41.90;58.40
27741;DHT22;15134;48.768;9.184;2023-05-07T09:23:55;41.40;58.90
27741;DHT22;15134;48.768;9.184;2023-05-07T09:26:26;41.20;59.30
27741;DHT22;15134;48.768;9.184;2023-05-07T09:28:54;41.30;59.40
27741;DHT22;15134;48.768;9.184;2023-05-07T09:31:23;41.30;58.70
27741;DHT22;15134;48.768;9.184;2023-05-07T09:33:52;40.50;59.60
27741;DHT22;15134;48.768;9.184;2023-05-07T09:36:18;39.30;60.60
27741;DHT22;15134;48.768;9.184;2023-05-07T09:38:45;38.00;62.50
27741;DHT22;15134;48.768;9.184;2023-05-07T09:41:14;36.60;63.60
27741;DHT22;15134;48.768;9.184;2023-05-07T09:43:53;35.60;65.40
27741;DHT22;15134;48.768;9.184;2023-05-07T09:46:33;34.90;67.30
27741;DHT22;15134;48.768;9.184;2023-05-07T09:49:06;34.00;68.80
27741;DHT22;15134;48.768;9.184;2023-05-07T09:51:43;32.90;70.60
27741;DHT22;15134;48.768;9.184;2023-05-07T09:54:14;31.90;73.60
27741;DHT22;15134;48.768;9.184;2023-05-07T09:56:52;31.60;77.40
27741;DHT22;15134;48.768;9.184;2023-05-07T09:59:20;31.40;79.60
27741;DHT22;15134;48.768;9.184;2023-05-07T10:01:48;31.20;80.30
27741;DHT22;15134;48.768;9.184;2023-05-07T10:04:15;30.90;80.20
27741;DHT22;15134;48.768;9.184;2023-05-07T10:06:47;30.50;78.90
27741;DHT22;15134;48.768;9.184;2023-05-07T10:09:14;30.30;79.00
27741;DHT22;15134;48.768;9.184;2023-05-07T10:11:41;30.10;79.30
27741;DHT22;15134;48.768;9.184;2023-05-07T10:14:07;29.80;80.20
27741;DHT22;15134;48.768;9.184;2023-05-07T10:16:35;29.20;80.90
27741;DHT22;15134;48.768;9.184;2023-05-07T10:19:07;28.70;83.40
27741;DHT22;15134;48.768;9.184;2023-05-07T10:21:36;28.50;83.70
27741;DHT22;15134;48.768;9.184;2023-05-07T10:24:09;28.50;81.10
27741;DHT22;15134;48.768;9.184;2023-05-07T10:26:44;28.30;83.00
27741;DHT22;15134;48.768;9.184;2023-05-07T10:32:19;27.90;85.40
27741;DHT22;15134;48.768;9.184;2023-05-07T10:35:01;27.90;85.90
27741;DHT22;15134;48.768;9.184;2023-05-07T10:37:30;27.80;86.70
27741;DHT22;15134;48.768;9.184;2023-05-07T10:39:56;27.50;84.50
27741;DHT22;15134;48.768;9.184;2023-05-07T10:42:24;27.40;87.70
27741;DHT22;15134;48.768;9.184;2023-05-07T10:44:53;27.50;86.90
27741;DHT22;15134;48.768;9.184;2023-05-07T10:47:29;27.50;86.60
27741;DHT22;15134;48.768;9.184;2023-05-07T10:52:32;27.70;87.60
27741;DHT22;15134;48.768;9.184;2023-05-07T10:58:25;27.40;87.90
27741;DHT22;15134;48.768;9.184;2023-05-07T11:01:01;27.40;86.80
27741;DHT22;15134;48.768;9.184;2023-05-07T11:03:33;27.60;86.90
27741;DHT22;15134;48.768;9.184;2023-05-07T11:06:14;27.60;86.90
27741;DHT22;15134;48.768;9.184;2023-05-07T11:08:59;27.60;87.00
27741;DHT22;15134;48.768;9.184;2023-05-07T11:12:46;27.60;86.60
27741;DHT22;15134;48.768;9.184;2023-05-07T11:14:51;27.20;84.90
27741;DHT22;15134;48.768;9.184;2023-05-07T11:17:34;26.60;86.80
27741;DHT22;15134;48.768;9.184;2023-05-07T11:20:05;26.40;87.20
27741;DHT22;15134;48.768;9.184;2023-05-07T11:22:45;26.30;88.50
27741;DHT22;15134;48.768;9.184;2023-05-07T11:25:25;26.40;87.60
27741;DHT22;15134;48.768;9.184;2023-05-07T11:28:07;26.30;87.50
27741;DHT22;15134;48.768;9.184;2023-05-07T11:30:37;26.20;86.20
27741;DHT22;15134;48.768;9.184;2023-05-07T11:33:05;26.00;85.60
27741;DHT22;15134;48.768;9.184;2023-05-07T11:35:33;26.00;85.60
27741;DHT22;15134;48.768;9.184;2023-05-07T11:38:00;26.00;86.20
27741;DHT22;15134;48.768;9.184;2023-05-07T11:40:27;25.90;85.90
27741;DHT22;15134;48.768;9.184;2023-05-07T11:42:54;25.80;86.20
27741;DHT22;15134;48.768;9.184;2023-05-07T11:45:23;25.70;90.20
27741;DHT22;15134;48.768;9.184;2023-05-07T11:47:52;25.70;90.50
27741;DHT22;15134;48.768;9.184;2023-05-07T11:50:18;25.50;88.30
27741;DHT22;15134;48.768;9.184;2023-05-07T11:52:50;25.30;88.10
27741;DHT22;15134;48.768;9.184;2023-05-07T11:55:18;25.10;90.30
27741;DHT22;15134;48.768;9.184;2023-05-07T11:57:44;24.80;91.10
27741;DHT22;15134;48.768;9.184;2023-05-07T12:00:11;24.50;91.30
27741;DHT22;15134;48.768;9.184;2023-05-07T12:02:40;24.40;92.00
27741;DHT22;15134;48.768;9.184;2023-05-07T12:05:07;24.10;92.10
27741;DHT22;15134;48.768;9.184;2023-05-07T12:07:36;23.90;92.80
27741;DHT22;15134;48.768;9.184;2023-05-07T12:10:11;23.80;93.60
27741;DHT22;15134;48.768;9.184;2023-05-07T12:12:40;23.80;94.30
27741;DHT22;15134;48.768;9.184;2023-05-07T12:15:09;23.50;94.50
27741;DHT22;15134;48.768;9.184;2023-05-07T12:17:36;23.30;95.10
27741;DHT22;15134;48.768;9.184;2023-05-07T12:20:08;23.10;96.00
27741;DHT22;15134;48.768;9.184;2023-05-07T12:22:35;23.00;96.60
27741;DHT22;15134;48.768;9.184;2023-05-07T12:25:01;22.80;96.50
27741;DHT22;15134;48.768;9.184;2023-05-07T12:27:27;22.60;96.60
27741;DHT22;15134;48.768;9.184;2023-05-07T12:29:54;22.40;96.90
27741;DHT22;15134;48.768;9.184;2023-05-07T12:32:20;22.20;98.10
27741;DHT22;15134;48.768;9.184;2023-05-07T12:34:50;22.20;99.00
27741;DHT22;15134;48.768;9.184;2023-05-07T12:37:23;22.10;99.90
27741;DHT22;15134;48.768;9.184;2023-05-07T12:40:03;22.00;99.90
27741;DHT22;15134;48.768;9.184;2023-05-07T12:42:35;21.70;99.90
27741;DHT22;15134;48.768;9.184;2023-05-07T12:45:11;21.40;99.90
27741;DHT22;15134;48.768;9.184;2023-05-07T12:47:37;21.30;99.90
27741;DHT22;15134;48.768;9.184;2023-05-07T12:50:06;21.00;99.90
27741;DHT22;15134;48.768;9.184;2023-05-07T12:52:33;20.40;99.90
27741;DHT22;15134;48.768;9.184;2023-05-07T12:55:05;19.90;99.90
27741;DHT22;15134;48.768;9.184;2023-05-07T12:57:43;19.70;99.90
27741;DHT22;15134;48.768;9.184;2023-05-07T13:00:11;19.50;99.90
27741;DHT22;15134;48.768;9.184;2023-05-07T13:02:41;19.30;99.90
27741;DHT22;15134;48.768;9.184;2023-05-07T13:05:10;19.20;99.90
27741;DHT22;15134;48.768;9.184;2023-05-07T13:07:36;19.20;99.90
27741;DHT22;15134;48.768;9.184;2023-05-07T13:10:02;19.10;99.90
27741;DHT22;15134;48.768;9.184;2023-05-07T13:12:28;19.00;99.90
27741;DHT22;15134;48.768;9.184;2023-05-07T13:14:54;18.90;99.90
27741;DHT22;15134;48.768;9.184;2023-05-07T13:17:20;18.50;99.90
27741;DHT22;15134;48.768;9.184;2023-05-07T13:19:52;18.10;99.90
27741;DHT22;15134;48.768;9.184;2023-05-07T13:22:22;18.00;99.90
27741;DHT22;15134;48.768;9.184;2023-05-07T13:24:48;18.00;99.90
27741;DHT22;15134;48.768;9.184;2023-05-07T13:27:20;18.00;99.90
27741;DHT22;15134;48.768;9.184;2023-05-07T13:29:52;18.10;99.90
27741;DHT22;15134;48.768;9.184;2023-05-07T13:32:17;18.10;99.90
27741;DHT22;15134;48.768;9.184;2023-05-07T13:34:45;18.10;99.90
27741;DHT22;15134;48.768;9.184;2023-05-07T13:37:14;18.10;99.90
27741;DHT22;15134;48.768;9.184;2023-05-07T13:39:41;18.20;99.90
27741;DHT22;15134;48.768;9.184;2023-05-07T13:42:08;18.20;99.90
27741;DHT22;15134;48.768;9.184;2023-05-07T13:44:37;18.20;99.90
27741;DHT22;15134;48.768;9.184;2023-05-07T13:47:03;18.10;99.90
27741;DHT22;15134;48.768;9.184;2023-05-07T13:49:29;18.00;99.90
27741;DHT22;15134;48.768;9.184;2023-05-07T13:51:55;17.90;99.90
27741;DHT22;15134;48.768;9.184;2023-05-07T13:54:21;17.80;99.90
27741;DHT22;15134;48.768;9.184;2023-05-07T13:56:46;17.80;99.90
27741;DHT22;15134;48.768;9.184;2023-05-07T13:59:17;17.80;99.90
27741;DHT22;15134;48.768;9.184;2023-05-07T14:01:43;17.70;99.90
27741;DHT22;15134;48.768;9.184;2023-05-07T14:04:09;17.60;99.90
27741;DHT22;15134;48.768;9.184;2023-05-07T14:06:35;17.60;99.90
27741;DHT22;15134;48.768;9.184;2023-05-07T14:09:01;17.60;99.90
27741;DHT22;15134;48.768;9.184;2023-05-07T14:11:27;17.60;99.90
27741;DHT22;15134;48.768;9.184;2023-05-07T14:13:52;17.60;99.90
27741;DHT22;15134;48.768;9.184;2023-05-07T14:16:21;17.60;99.90
27741;DHT22;15134;48.768;9.184;2023-05-07T14:18:47;17.60;99.90
27741;DHT22;15134;48.768;9.184;2023-05-07T14:21:13;17.50;99.90
27741;DHT22;15134;48.768;9.184;2023-05-07T14:23:39;17.50;99.90
27741;DHT22;15134;48.768;9.184;2023-05-07T14:26:05;17.50;99.90
27741;DHT22;15134;48.768;9.184;2023-05-07T14:28:31;17.50;99.90
27741;DHT22;15134;48.768;9.184;2023-05-07T14:30:57;17.40;99.90
27741;DHT22;15134;48.768;9.184;2023-05-07T14:33:28;17.30;99.90
27741;DHT22;15134;48.768;9.184;2023-05-07T14:35:54;17.20;99.90
27741;DHT22;15134;48.768;9.184;2023-05-07T14:38:20;17.20;99.90
27741;DHT22;15134;48.768;9.184;2023-05-07T14:40:46;17.20;99.90
27741;DHT22;15134;48.768;9.184;2023-05-07T14:43:13;17.20;99.90
27741;DHT22;15134;48.768;9.184;2023-05-07T14:45:38;17.10;99.90
27741;DHT22;15134;48.768;9.184;2023-05-07T14:48:05;17.20;99.90
27741;DHT22;15134;48.768;9.184;2023-05-07T14:50:31;17.20;99.90
27741;DHT22;15134;48.768;9.184;2023-05-07T14:52:56;17.20;99.90
27741;DHT22;15134;48.768;9.184;2023-05-07T14:55:22;17.40;99.90
27741;DHT22;15134;48.768;9.184;2023-05-07T14:57:48;17.40;99.90
27741;DHT22;15134;48.768;9.184;2023-05-07T15:00:15;17.50;99.90
27741;DHT22;15134;48.768;9.184;2023-05-07T15:02:42;17.60;99.90
27741;DHT22;15134;48.768;9.184;2023-05-07T15:05:14;17.60;99.90
27741;DHT22;15134;48.768;9.184;2023-05-07T15:07:40;17.60;99.90
27741;DHT22;15134;48.768;9.184;2023-05-07T15:10:06;17.60;99.90
27741;DHT22;15134;48.768;9.184;2023-05-07T15:12:32;17.50;99.90
27741;DHT22;15134;48.768;9.184;2023-05-07T15:14:58;17.60;99.90
27741;DHT22;15134;48.768;9.184;2023-05-07T15:17:23;17.70;99.90
27741;DHT22;15134;48.768;9.184;2023-05-07T15:19:49;17.80;99.90
27741;DHT22;15134;48.768;9.184;2023-05-07T15:22:15;17.90;99.90
27741;DHT22;15134;48.768;9.184;2023-05-07T15:24:40;17.90;99.90
27741;DHT22;15134;48.768;9.184;2023-05-07T15:27:06;17.90;99.90
27741;DHT22;15134;48.768;9.184;2023-05-07T15:29:32;17.90;99.90
27741;DHT22;15134;48.768;9.184;2023-05-07T15:31:59;17.80;99.90
27741;DHT22;15134;48.768;9.184;2023-05-07T15:34:25;17.70;99.90
27741;DHT22;15134;48.768;9.184;2023-05-07T15:36:57;17.70;99.90
27741;DHT22;15134;48.768;9.184;2023-05-07T15:39:23;17.70;99.90
27741;DHT22;15134;48.768;9.184;2023-05-07T15:41:49;17.60;99.90
27741;DHT22;15134;48.768;9.184;2023-05-07T15:44:14;17.70;99.90
27741;DHT22;15134;48.768;9.184;2023-05-07T15:46:40;17.70;99.90